sensor_id;sensor_type;location;lat;lon;timestamp;pressure;altitude;pressure_sealevel;temperature;humidity
60852;BME280;48553;50.766;2.900;2022-10-22T00:02:59;100026.78;;;15.77;75.23
60852;BME280;48553;50.766;2.900;2022-10-22T00:05:59;100027.16;;;15.72;75.73
60852;BME280;48553;50.766;2.900;2022-10-22T00:09:00;100035.44;;;15.72;75.97
60852;BME280;48553;50.766;2.900;2022-10-22T00:12:00;100033.84;;;15.71;75.73
60852;BME280;48553;50.766;2.900;2022-10-22T00:15:01;100038.56;;;15.70;75.75
60852;BME280;48553;50.766;2.900;2022-10-22T00:18:02;100039.38;;;15.71;75.80
60852;BME280;48553;50.766;2.900;2022-10-22T00:21:02;100052.34;;;15.66;75.91
60852;BME280;48553;50.766;2.900;2022-10-22T00:24:03;100046.03;;;15.66;76.05
60852;BME280;48553;50.766;2.900;2022-10-22T00:27:06;100051.16;;;15.64;75.96
60852;BME280;48553;50.766;2.900;2022-10-22T00:30:07;100051.16;;;15.64;75.99
60852;BME280;48553;50.766;2.900;2022-10-22T00:33:08;100057.88;;;15.63;75.96
60852;BME280;48553;50.766;2.900;2022-10-22T00:36:08;100053.50;;;15.62;75.84
60852;BME280;48553;50.766;2.900;2022-10-22T00:39:09;100056.66;;;15.60;75.98
60852;BME280;48553;50.766;2.900;2022-10-22T00:42:16;100059.44;;;15.60;76.07
60852;BME280;48553;50.766;2.900;2022-10-22T00:45:25;100058.63;;;15.56;76.23
60852;BME280;48553;50.766;2.900;2022-10-22T00:48:28;100057.44;;;15.54;76.42
60852;BME280;48553;50.766;2.900;2022-10-22T00:51:31;100068.47;;;15.54;76.39
60852;BME280;48553;50.766;2.900;2022-10-22T00:54:34;100065.72;;;15.54;76.33
60852;BME280;48553;50.766;2.900;2022-10-22T00:57:35;100059.78;;;15.52;76.51
60852;BME280;48553;50.766;2.900;2022-10-22T01:00:35;100065.31;;;15.52;76.60
60852;BME280;48553;50.766;2.900;2022-10-22T01:03:36;100068.44;;;15.50;76.74
60852;BME280;48553;50.766;2.900;2022-10-22T01:06:36;100065.25;;;15.48;76.63
60852;BME280;48553;50.766;2.900;2022-10-22T01:12:56;100074.75;;;15.47;76.80
60852;BME280;48553;50.766;2.900;2022-10-22T01:16:18;100081.84;;;15.44;76.93
60852;BME280;48553;50.766;2.900;2022-10-22T01:23:32;100082.22;;;15.43;76.84
60852;BME280;48553;50.766;2.900;2022-10-22T01:29:25;100078.22;;;15.37;77.02
60852;BME280;48553;50.766;2.900;2022-10-22T01:32:30;100083.78;;;15.40;76.78
60852;BME280;48553;50.766;2.900;2022-10-22T01:35:38;100082.19;;;15.39;77.03
60852;BME280;48553;50.766;2.900;2022-10-22T01:38:41;100084.53;;;15.34;77.24
60852;BME280;48553;50.766;2.900;2022-10-22T01:41:43;100093.97;;;15.33;77.25
60852;BME280;48553;50.766;2.900;2022-10-22T01:44:44;100092.03;;;15.37;77.03
60852;BME280;48553;50.766;2.900;2022-10-22T01:48:12;100090.41;;;15.32;77.32
60852;BME280;48553;50.766;2.900;2022-10-22T01:54:44;100097.13;;;15.35;77.37
60852;BME280;48553;50.766;2.900;2022-10-22T01:58:32;100105.03;;;15.36;77.25
60852;BME280;48553;50.766;2.900;2022-10-22T02:01:46;100111.34;;;15.33;77.47
60852;BME280;48553;50.766;2.900;2022-10-22T02:05:22;100104.63;;;15.34;77.53
60852;BME280;48553;50.766;2.900;2022-10-22T02:08:28;100112.13;;;15.34;77.69
60852;BME280;48553;50.766;2.900;2022-10-22T02:11:29;100110.16;;;15.31;77.57
60852;BME280;48553;50.766;2.900;2022-10-22T02:14:31;100113.28;;;15.29;77.52
60852;BME280;48553;50.766;2.900;2022-10-22T02:17:34;100125.47;;;15.28;77.51
60852;BME280;48553;50.766;2.900;2022-10-22T02:20:37;100121.19;;;15.31;77.45
60852;BME280;48553;50.766;2.900;2022-10-22T02:23:40;100129.06;;;15.29;77.41
60852;BME280;48553;50.766;2.900;2022-10-22T02:26:45;100121.56;;;15.29;77.49
60852;BME280;48553;50.766;2.900;2022-10-22T02:29:55;100126.69;;;15.27;77.51
60852;BME280;48553;50.766;2.900;2022-10-22T02:36:13;100119.59;;;15.26;77.71
60852;BME280;48553;50.766;2.900;2022-10-22T02:39:15;100131.41;;;15.27;77.58
60852;BME280;48553;50.766;2.900;2022-10-22T02:42:16;100128.66;;;15.27;77.66
60852;BME280;48553;50.766;2.900;2022-10-22T02:45:18;100130.63;;;15.26;77.93
60852;BME280;48553;50.766;2.900;2022-10-22T02:48:19;100126.25;;;15.25;77.78
60852;BME280;48553;50.766;2.900;2022-10-22T02:51:19;100131.78;;;15.25;77.87
60852;BME280;48553;50.766;2.900;2022-10-22T02:54:20;100136.94;;;15.27;77.99
60852;BME280;48553;50.766;2.900;2022-10-22T02:57:20;100128.22;;;15.24;77.95
60852;BME280;48553;50.766;2.900;2022-10-22T03:00:21;100135.34;;;15.25;77.84
60852;BME280;48553;50.766;2.900;2022-10-22T03:03:21;100140.47;;;15.27;77.80
60852;BME280;48553;50.766;2.900;2022-10-22T03:06:21;100142.41;;;15.23;77.97
60852;BME280;48553;50.766;2.900;2022-10-22T03:09:22;100148.34;;;15.25;77.77
60852;BME280;48553;50.766;2.900;2022-10-22T03:12:22;100153.09;;;15.24;77.62
60852;BME280;48553;50.766;2.900;2022-10-22T03:15:23;100153.09;;;15.24;77.53
60852;BME280;48553;50.766;2.900;2022-10-22T03:18:23;100151.47;;;15.20;77.74
60852;BME280;48553;50.766;2.900;2022-10-22T03:21:31;100155.81;;;15.21;77.51
60852;BME280;48553;50.766;2.900;2022-10-22T03:24:45;100154.22;;;15.20;77.66
60852;BME280;48553;50.766;2.900;2022-10-22T03:27:49;100164.06;;;15.17;77.85
60852;BME280;48553;50.766;2.900;2022-10-22T03:30:51;100159.28;;;15.14;77.81
60852;BME280;48553;50.766;2.900;2022-10-22T03:33:51;100151.00;;;15.14;77.57
60852;BME280;48553;50.766;2.900;2022-10-22T03:36:52;100161.69;;;15.16;77.64
60852;BME280;48553;50.766;2.900;2022-10-22T03:39:54;100169.19;;;15.15;77.91
60852;BME280;48553;50.766;2.900;2022-10-22T03:42:54;100166.00;;;15.13;77.87
60852;BME280;48553;50.766;2.900;2022-10-22T03:45:55;100169.53;;;15.10;77.95
60852;BME280;48553;50.766;2.900;2022-10-22T03:48:55;100173.09;;;15.11;77.91
60852;BME280;48553;50.766;2.900;2022-10-22T03:51:56;100177.41;;;15.12;78.03
60852;BME280;48553;50.766;2.900;2022-10-22T03:54:56;100182.94;;;15.12;77.71
60852;BME280;48553;50.766;2.900;2022-10-22T03:57:56;100186.47;;;15.12;78.07
60852;BME280;48553;50.766;2.900;2022-10-22T04:01:03;100197.91;;;15.11;77.98
60852;BME280;48553;50.766;2.900;2022-10-22T04:04:04;100191.19;;;15.08;78.30
60852;BME280;48553;50.766;2.900;2022-10-22T04:07:05;100203.41;;;15.07;78.22
60852;BME280;48553;50.766;2.900;2022-10-22T04:10:06;100203.41;;;15.07;78.16
60852;BME280;48553;50.766;2.900;2022-10-22T04:13:07;100208.91;;;15.07;78.20
60852;BME280;48553;50.766;2.900;2022-10-22T04:16:12;100222.34;;;15.09;78.30
60852;BME280;48553;50.766;2.900;2022-10-22T04:19:13;100231.78;;;15.08;78.15
60852;BME280;48553;50.766;2.900;2022-10-22T04:22:14;100228.28;;;15.11;78.17
60852;BME280;48553;50.766;2.900;2022-10-22T04:25:14;100237.72;;;15.10;78.48
60852;BME280;48553;50.766;2.900;2022-10-22T04:28:14;100232.59;;;15.08;78.37
60852;BME280;48553;50.766;2.900;2022-10-22T04:31:18;100238.13;;;15.12;78.22
60852;BME280;48553;50.766;2.900;2022-10-22T04:34:18;100242.81;;;15.08;78.47
60852;BME280;48553;50.766;2.900;2022-10-22T04:37:19;100238.50;;;15.07;78.55
60852;BME280;48553;50.766;2.900;2022-10-22T04:40:19;100252.66;;;15.05;78.59
60852;BME280;48553;50.766;2.900;2022-10-22T04:43:20;100245.16;;;15.06;78.57
60852;BME280;48553;50.766;2.900;2022-10-22T04:46:21;100249.91;;;15.05;78.45
60852;BME280;48553;50.766;2.900;2022-10-22T04:49:21;100257.03;;;15.06;78.67
60852;BME280;48553;50.766;2.900;2022-10-22T04:52:22;100257.81;;;15.07;78.64
60852;BME280;48553;50.766;2.900;2022-10-22T04:55:22;100266.09;;;15.07;78.70
60852;BME280;48553;50.766;2.900;2022-10-22T04:58:23;100258.56;;;15.03;78.83
60852;BME280;48553;50.766;2.900;2022-10-22T05:01:25;100269.63;;;15.07;78.79
60852;BME280;48553;50.766;2.900;2022-10-22T05:04:26;100272.75;;;15.06;78.82
60852;BME280;48553;50.766;2.900;2022-10-22T05:07:26;100265.25;;;15.02;78.96
60852;BME280;48553;50.766;2.900;2022-10-22T05:10:27;100282.22;;;15.04;78.88
60852;BME280;48553;50.766;2.900;2022-10-22T05:13:27;100283.00;;;15.05;78.72
60852;BME280;48553;50.766;2.900;2022-10-22T05:16:28;100290.13;;;15.06;78.72
60852;BME280;48553;50.766;2.900;2022-10-22T05:19:30;100281.44;;;15.04;78.87
60852;BME280;48553;50.766;2.900;2022-10-22T05:22:32;100295.66;;;15.06;78.66
60852;BME280;48553;50.766;2.900;2022-10-22T05:25:37;100294.44;;;15.03;78.92
60852;BME280;48553;50.766;2.900;2022-10-22T05:28:39;100290.09;;;15.02;79.13
60852;BME280;48553;50.766;2.900;2022-10-22T05:31:39;100298.00;;;15.04;79.12
60852;BME280;48553;50.766;2.900;2022-10-22T05:34:40;100296.03;;;15.04;78.92
60852;BME280;48553;50.766;2.900;2022-10-22T05:37:40;100307.84;;;15.05;78.94
60852;BME280;48553;50.766;2.900;2022-10-22T05:40:40;100305.06;;;15.01;79.04
60852;BME280;48553;50.766;2.900;2022-10-22T05:43:41;100307.84;;;15.01;79.06
60852;BME280;48553;50.766;2.900;2022-10-22T05:46:41;100324.00;;;15.03;79.07
60852;BME280;48553;50.766;2.900;2022-10-22T05:49:42;100315.34;;;15.04;78.93
60852;BME280;48553;50.766;2.900;2022-10-22T05:52:42;100327.88;;;14.98;79.23
60852;BME280;48553;50.766;2.900;2022-10-22T05:55:43;100334.63;;;15.01;79.11
60852;BME280;48553;50.766;2.900;2022-10-22T05:58:44;100328.28;;;14.97;79.11
60852;BME280;48553;50.766;2.900;2022-10-22T06:01:44;100329.06;;;14.97;79.14
60852;BME280;48553;50.766;2.900;2022-10-22T06:04:46;100336.94;;;14.95;79.02
60852;BME280;48553;50.766;2.900;2022-10-22T06:07:47;100344.41;;;14.95;79.11
60852;BME280;48553;50.766;2.900;2022-10-22T06:10:47;100344.84;;;14.97;79.11
60852;BME280;48553;50.766;2.900;2022-10-22T06:13:48;100343.66;;;14.98;79.15
60852;BME280;48553;50.766;2.900;2022-10-22T06:16:50;100353.13;;;14.97;79.07
60852;BME280;48553;50.766;2.900;2022-10-22T06:19:50;100346.78;;;14.96;79.26
60852;BME280;48553;50.766;2.900;2022-10-22T06:22:51;100355.88;;;14.97;79.28
60852;BME280;48553;50.766;2.900;2022-10-22T06:25:56;100364.16;;;14.97;79.10
60852;BME280;48553;50.766;2.900;2022-10-22T06:28:57;100367.69;;;14.97;79.19
60852;BME280;48553;50.766;2.900;2022-10-22T06:31:58;100371.63;;;14.96;79.10
60852;BME280;48553;50.766;2.900;2022-10-22T06:34:58;100371.25;;;14.98;79.23
60852;BME280;48553;50.766;2.900;2022-10-22T06:37:58;100380.72;;;14.97;79.37
60852;BME280;48553;50.766;2.900;2022-10-22T06:41:07;100381.06;;;14.95;79.46
60852;BME280;48553;50.766;2.900;2022-10-22T06:44:13;100386.66;;;14.99;79.30
60852;BME280;48553;50.766;2.900;2022-10-22T06:47:13;100385.03;;;14.98;79.39
60852;BME280;48553;50.766;2.900;2022-10-22T06:50:14;100393.31;;;14.98;79.61
60852;BME280;48553;50.766;2.900;2022-10-22T06:53:14;100402.03;;;15.00;79.61
60852;BME280;48553;50.766;2.900;2022-10-22T06:56:18;100400.47;;;15.02;79.57
60852;BME280;48553;50.766;2.900;2022-10-22T06:59:19;100400.84;;;15.01;79.71
60852;BME280;48553;50.766;2.900;2022-10-22T07:02:19;100415.81;;;15.00;79.76
60852;BME280;48553;50.766;2.900;2022-10-22T07:05:20;100422.97;;;15.04;79.76
60852;BME280;48553;50.766;2.900;2022-10-22T07:08:20;100436.41;;;15.06;79.54
60852;BME280;48553;50.766;2.900;2022-10-22T07:11:25;100438.44;;;15.09;79.69
60852;BME280;48553;50.766;2.900;2022-10-22T07:14:26;100448.44;;;15.21;79.35
60852;BME280;48553;50.766;2.900;2022-10-22T07:17:27;100456.91;;;15.35;78.75
60852;BME280;48553;50.766;2.900;2022-10-22T07:20:27;100462.66;;;15.23;79.17
60852;BME280;48553;50.766;2.900;2022-10-22T07:23:28;100471.69;;;15.20;79.51
60852;BME280;48553;50.766;2.900;2022-10-22T07:26:29;100477.59;;;15.18;79.60
60852;BME280;48553;50.766;2.900;2022-10-22T07:29:31;100487.41;;;15.16;79.75
60852;BME280;48553;50.766;2.900;2022-10-22T07:32:32;100490.19;;;15.16;79.97
60852;BME280;48553;50.766;2.900;2022-10-22T07:35:32;100490.19;;;15.16;80.08
60852;BME280;48553;50.766;2.900;2022-10-22T07:38:34;100490.97;;;15.16;80.10
60852;BME280;48553;50.766;2.900;2022-10-22T07:41:34;100497.69;;;15.19;79.89
60852;BME280;48553;50.766;2.900;2022-10-22T07:44:35;100495.75;;;15.19;79.81
60852;BME280;48553;50.766;2.900;2022-10-22T07:47:35;100506.50;;;15.28;79.74
60852;BME280;48553;50.766;2.900;2022-10-22T07:50:36;100504.22;;;15.34;79.49
60852;BME280;48553;50.766;2.900;2022-10-22T07:53:37;100520.81;;;15.37;79.45
60852;BME280;48553;50.766;2.900;2022-10-22T08:23:41;100547.56;;;16.68;75.86
60852;BME280;48553;50.766;2.900;2022-10-22T08:26:45;100559.97;;;16.82;75.57
60852;BME280;48553;50.766;2.900;2022-10-22T08:36:07;100566.03;;;16.98;75.97
60852;BME280;48553;50.766;2.900;2022-10-22T08:39:30;100564.94;;;17.10;75.28
60852;BME280;48553;50.766;2.900;2022-10-22T08:45:56;100573.41;;;17.39;75.12
60852;BME280;48553;50.766;2.900;2022-10-22T08:49:00;100578.28;;;17.60;74.54
60852;BME280;48553;50.766;2.900;2022-10-22T08:52:02;100589.00;;;17.61;74.61
60852;BME280;48553;50.766;2.900;2022-10-22T08:55:03;100589.88;;;17.80;74.22
60852;BME280;48553;50.766;2.900;2022-10-22T09:01:44;100590.38;;;18.00;73.75
60852;BME280;48553;50.766;2.900;2022-10-22T09:04:57;100586.81;;;18.03;73.78
60852;BME280;48553;50.766;2.900;2022-10-22T09:08:01;100595.63;;;18.19;73.18
60852;BME280;48553;50.766;2.900;2022-10-22T09:11:13;100603.19;;;18.33;72.94
60852;BME280;48553;50.766;2.900;2022-10-22T09:14:17;100602.00;;;18.48;72.65
60852;BME280;48553;50.766;2.900;2022-10-22T09:17:30;100602.03;;;18.59;72.15
60852;BME280;48553;50.766;2.900;2022-10-22T09:24:03;100602.84;;;18.74;71.63
60852;BME280;48553;50.766;2.900;2022-10-22T09:27:13;100605.28;;;18.90;71.24
60852;BME280;48553;50.766;2.900;2022-10-22T09:30:19;100605.66;;;19.03;71.03
60852;BME280;48553;50.766;2.900;2022-10-22T09:33:27;100601.69;;;19.14;70.83
60852;BME280;48553;50.766;2.900;2022-10-22T09:36:30;100604.03;;;19.23;70.72
60852;BME280;48553;50.766;2.900;2022-10-22T09:39:39;100611.59;;;19.26;70.71
60852;BME280;48553;50.766;2.900;2022-10-22T09:42:40;100602.03;;;19.34;70.60
60852;BME280;48553;50.766;2.900;2022-10-22T09:45:41;100608.41;;;19.38;70.47
60852;BME280;48553;50.766;2.900;2022-10-22T09:48:46;100614.38;;;19.33;70.31
60852;BME280;48553;50.766;2.900;2022-10-22T09:51:58;100620.72;;;19.30;70.29
60852;BME280;48553;50.766;2.900;2022-10-22T09:55:01;100606.44;;;19.32;70.00
60852;BME280;48553;50.766;2.900;2022-10-22T09:58:02;100611.19;;;19.31;70.41
60852;BME280;48553;50.766;2.900;2022-10-22T10:01:02;100611.19;;;19.42;69.75
60852;BME280;48553;50.766;2.900;2022-10-22T10:04:09;100611.16;;;19.49;69.59
60852;BME280;48553;50.766;2.900;2022-10-22T10:07:17;100616.69;;;19.74;68.91
60852;BME280;48553;50.766;2.900;2022-10-22T10:10:37;100609.88;;;19.93;68.60
60852;BME280;48553;50.766;2.900;2022-10-22T10:23:55;100613.94;;;20.59;67.71
60852;BME280;48553;50.766;2.900;2022-10-22T10:27:06;100621.81;;;20.68;67.59
60852;BME280;48553;50.766;2.900;2022-10-22T10:33:30;100636.41;;;20.90;67.22
60852;BME280;48553;50.766;2.900;2022-10-22T10:36:53;100639.84;;;21.04;66.63
60852;BME280;48553;50.766;2.900;2022-10-22T10:40:23;100650.53;;;21.17;66.28
60852;BME280;48553;50.766;2.900;2022-10-22T10:43:48;100651.63;;;21.26;66.03
60852;BME280;48553;50.766;2.900;2022-10-22T11:03:32;100652.63;;;21.88;64.14
60852;BME280;48553;50.766;2.900;2022-10-22T11:06:36;100642.19;;;21.96;64.45
60852;BME280;48553;50.766;2.900;2022-10-22T11:09:45;100657.53;;;22.11;64.30
60852;BME280;48553;50.766;2.900;2022-10-22T11:12:49;100651.94;;;22.11;63.17
60852;BME280;48553;50.766;2.900;2022-10-22T11:16:09;100648.19;;;22.29;62.28
60852;BME280;48553;50.766;2.900;2022-10-22T11:19:18;100653.19;;;22.41;62.69
60852;BME280;48553;50.766;2.900;2022-10-22T11:22:25;100648.34;;;22.45;62.88
60852;BME280;48553;50.766;2.900;2022-10-22T11:25:34;100647.78;;;22.58;61.87
60852;BME280;48553;50.766;2.900;2022-10-22T11:28:46;100646.47;;;22.66;61.25
60852;BME280;48553;50.766;2.900;2022-10-22T11:31:48;100653.13;;;22.76;61.15
60852;BME280;48553;50.766;2.900;2022-10-22T11:34:55;100652.56;;;22.84;60.43
60852;BME280;48553;50.766;2.900;2022-10-22T11:37:57;100652.88;;;22.90;60.63
60852;BME280;48553;50.766;2.900;2022-10-22T11:41:10;100656.72;;;23.03;60.19
60852;BME280;48553;50.766;2.900;2022-10-22T11:44:22;100646.88;;;22.91;60.68
60852;BME280;48553;50.766;2.900;2022-10-22T11:47:28;100645.53;;;22.76;60.82
60852;BME280;48553;50.766;2.900;2022-10-22T11:53:40;100635.25;;;22.69;59.67
60852;BME280;48553;50.766;2.900;2022-10-22T11:56:40;100624.19;;;22.86;59.19
60852;BME280;48553;50.766;2.900;2022-10-22T11:59:48;100634.91;;;22.91;59.17
60852;BME280;48553;50.766;2.900;2022-10-22T12:03:02;100634.34;;;23.03;59.47
60852;BME280;48553;50.766;2.900;2022-10-22T12:09:12;100641.81;;;23.10;58.72
60852;BME280;48553;50.766;2.900;2022-10-22T12:12:13;100647.34;;;23.13;58.35
60852;BME280;48553;50.766;2.900;2022-10-22T12:15:27;100645.81;;;23.09;58.43
60852;BME280;48553;50.766;2.900;2022-10-22T12:18:40;100635.69;;;23.19;58.26
60852;BME280;48553;50.766;2.900;2022-10-22T12:21:46;100640.44;;;23.22;58.26
60852;BME280;48553;50.766;2.900;2022-10-22T12:24:50;100642.00;;;23.23;58.38
60852;BME280;48553;50.766;2.900;2022-10-22T12:27:52;100649.84;;;23.31;57.61
60852;BME280;48553;50.766;2.900;2022-10-22T12:30:58;100637.31;;;23.40;57.56
60852;BME280;48553;50.766;2.900;2022-10-22T12:33:59;100638.38;;;23.46;57.24
60852;BME280;48553;50.766;2.900;2022-10-22T12:37:03;100629.75;;;23.37;57.45
60852;BME280;48553;50.766;2.900;2022-10-22T12:40:20;100631.72;;;23.40;57.24
60852;BME280;48553;50.766;2.900;2022-10-22T12:43:29;100632.50;;;23.40;56.85
60852;BME280;48553;50.766;2.900;2022-10-22T12:46:32;100635.59;;;23.46;56.92
60852;BME280;48553;50.766;2.900;2022-10-22T12:49:37;100622.41;;;23.46;56.30
60852;BME280;48553;50.766;2.900;2022-10-22T12:52:38;100628.06;;;23.43;56.38
60852;BME280;48553;50.766;2.900;2022-10-22T12:55:39;100621.88;;;23.31;56.40
60852;BME280;48553;50.766;2.900;2022-10-22T12:58:45;100627.53;;;23.28;56.23
60852;BME280;48553;50.766;2.900;2022-10-22T13:01:47;100621.81;;;23.35;55.95
60852;BME280;48553;50.766;2.900;2022-10-22T13:05:14;100627.34;;;23.39;56.03
60852;BME280;48553;50.766;2.900;2022-10-22T13:08:17;100623.69;;;23.42;55.82
60852;BME280;48553;50.766;2.900;2022-10-22T13:11:20;100613.47;;;23.31;54.92
60852;BME280;48553;50.766;2.900;2022-10-22T13:14:27;100617.19;;;23.25;55.64
60852;BME280;48553;50.766;2.900;2022-10-22T13:17:39;100617.28;;;23.21;55.50
60852;BME280;48553;50.766;2.900;2022-10-22T13:20:53;100618.34;;;23.04;56.36
60852;BME280;48553;50.766;2.900;2022-10-22T13:24:16;100622.88;;;22.94;56.17
60852;BME280;48553;50.766;2.900;2022-10-22T13:27:18;100619.84;;;22.85;57.04
60852;BME280;48553;50.766;2.900;2022-10-22T13:30:30;100610.19;;;22.89;56.06
60852;BME280;48553;50.766;2.900;2022-10-22T13:33:34;100622.44;;;22.96;55.88
60852;BME280;48553;50.766;2.900;2022-10-22T13:36:36;100616.31;;;22.81;56.35
60852;BME280;48553;50.766;2.900;2022-10-22T13:39:36;100610.91;;;22.66;57.01
60852;BME280;48553;50.766;2.900;2022-10-22T13:42:37;100606.88;;;22.71;56.62
60852;BME280;48553;50.766;2.900;2022-10-22T13:45:39;100610.88;;;22.70;56.44
60852;BME280;48553;50.766;2.900;2022-10-22T13:48:39;100613.38;;;22.64;57.16
60852;BME280;48553;50.766;2.900;2022-10-22T13:51:41;100622.16;;;22.63;56.97
60852;BME280;48553;50.766;2.900;2022-10-22T13:54:41;100616.50;;;22.66;57.00
60852;BME280;48553;50.766;2.900;2022-10-22T13:57:42;100612.56;;;22.64;57.15
60852;BME280;48553;50.766;2.900;2022-10-22T14:00:46;100610.88;;;22.70;56.99
60852;BME280;48553;50.766;2.900;2022-10-22T14:03:49;100615.06;;;22.58;57.40
60852;BME280;48553;50.766;2.900;2022-10-22T14:06:51;100610.47;;;22.44;57.97
60852;BME280;48553;50.766;2.900;2022-10-22T14:09:51;100614.56;;;22.36;57.75
60852;BME280;48553;50.766;2.900;2022-10-22T14:12:52;100609.13;;;22.25;58.42
60852;BME280;48553;50.766;2.900;2022-10-22T14:15:52;100604.41;;;22.19;57.64
60852;BME280;48553;50.766;2.900;2022-10-22T14:18:54;100603.75;;;22.07;58.13
60852;BME280;48553;50.766;2.900;2022-10-22T14:21:54;100618.66;;;21.94;58.58
60852;BME280;48553;50.766;2.900;2022-10-22T14:24:55;100619.97;;;21.85;58.83
60852;BME280;48553;50.766;2.900;2022-10-22T14:27:55;100611.31;;;21.76;59.02
60852;BME280;48553;50.766;2.900;2022-10-22T14:30:56;100617.75;;;21.69;59.69
60852;BME280;48553;50.766;2.900;2022-10-22T14:33:56;100619.34;;;21.71;59.87
60852;BME280;48553;50.766;2.900;2022-10-22T14:36:56;100612.19;;;21.69;59.49
60852;BME280;48553;50.766;2.900;2022-10-22T14:39:57;100613.91;;;21.60;59.49
60852;BME280;48553;50.766;2.900;2022-10-22T14:43:01;100607.50;;;21.59;60.02
60852;BME280;48553;50.766;2.900;2022-10-22T14:46:02;100605.97;;;21.55;59.54
60852;BME280;48553;50.766;2.900;2022-10-22T14:49:02;100613.53;;;21.54;59.96
60852;BME280;48553;50.766;2.900;2022-10-22T14:52:03;100620.03;;;21.44;60.27
60852;BME280;48553;50.766;2.900;2022-10-22T14:55:03;100616.47;;;21.40;59.98
60852;BME280;48553;50.766;2.900;2022-10-22T14:58:04;100619.28;;;21.36;60.32
60852;BME280;48553;50.766;2.900;2022-10-22T15:01:05;100610.19;;;21.28;60.91
60852;BME280;48553;50.766;2.900;2022-10-22T15:04:05;100615.84;;;21.21;60.80
60852;BME280;48553;50.766;2.900;2022-10-22T15:07:06;100616.25;;;21.16;60.60
60852;BME280;48553;50.766;2.900;2022-10-22T15:10:07;100622.34;;;21.08;60.82
60852;BME280;48553;50.766;2.900;2022-10-22T15:13:08;100625.59;;;20.99;60.84
60852;BME280;48553;50.766;2.900;2022-10-22T15:16:09;100624.44;;;20.93;61.39
60852;BME280;48553;50.766;2.900;2022-10-22T15:19:10;100614.53;;;20.84;61.51
60852;BME280;48553;50.766;2.900;2022-10-22T15:22:11;100625.31;;;20.82;61.70
60852;BME280;48553;50.766;2.900;2022-10-22T15:25:12;100620.53;;;20.79;61.68
60852;BME280;48553;50.766;2.900;2022-10-22T15:28:13;100625.38;;;20.72;61.82
60852;BME280;48553;50.766;2.900;2022-10-22T15:31:14;100624.22;;;20.65;62.19
60852;BME280;48553;50.766;2.900;2022-10-22T15:34:22;100630.19;;;20.64;62.49
60852;BME280;48553;50.766;2.900;2022-10-22T15:37:23;100634.63;;;20.58;62.80
60852;BME280;48553;50.766;2.900;2022-10-22T15:40:24;100625.09;;;20.48;62.76
60852;BME280;48553;50.766;2.900;2022-10-22T15:43:24;100622.34;;;20.44;62.83
60852;BME280;48553;50.766;2.900;2022-10-22T15:46:25;100620.75;;;20.43;63.43
60852;BME280;48553;50.766;2.900;2022-10-22T15:49:27;100614.03;;;20.37;63.22
60852;BME280;48553;50.766;2.900;2022-10-22T15:52:27;100615.22;;;20.36;63.84
60852;BME280;48553;50.766;2.900;2022-10-22T15:55:27;100614.88;;;20.31;64.10
60852;BME280;48553;50.766;2.900;2022-10-22T15:58:28;100602.97;;;20.27;64.13
60852;BME280;48553;50.766;2.900;2022-10-22T16:01:30;100607.75;;;20.22;64.32
60852;BME280;48553;50.766;2.900;2022-10-22T16:04:31;100597.88;;;20.14;64.48
60852;BME280;48553;50.766;2.900;2022-10-22T16:07:32;100598.66;;;20.11;64.85
60852;BME280;48553;50.766;2.900;2022-10-22T16:10:32;100602.66;;;20.07;64.94
60852;BME280;48553;50.766;2.900;2022-10-22T16:13:33;100606.66;;;20.02;64.99
60852;BME280;48553;50.766;2.900;2022-10-22T16:16:36;100606.28;;;19.96;65.07
60852;BME280;48553;50.766;2.900;2022-10-22T16:19:38;100616.63;;;19.92;65.07
60852;BME280;48553;50.766;2.900;2022-10-22T16:22:39;100615.06;;;19.88;65.51
60852;BME280;48553;50.766;2.900;2022-10-22T16:25:40;100619.44;;;19.81;65.31
60852;BME280;48553;50.766;2.900;2022-10-22T16:28:42;100630.22;;;19.76;65.73
60852;BME280;48553;50.766;2.900;2022-10-22T16:31:42;100629.41;;;19.72;65.57
60852;BME280;48553;50.766;2.900;2022-10-22T16:34:44;100631.00;;;19.69;65.55
60852;BME280;48553;50.766;2.900;2022-10-22T16:37:44;100615.91;;;19.67;66.04
60852;BME280;48553;50.766;2.900;2022-10-22T16:40:45;100611.53;;;19.58;66.00
60852;BME280;48553;50.766;2.900;2022-10-22T16:43:47;100617.53;;;19.53;66.02
60852;BME280;48553;50.766;2.900;2022-10-22T16:46:48;100615.94;;;19.49;66.25
60852;BME280;48553;50.766;2.900;2022-10-22T16:49:48;100614.38;;;19.44;66.29
60852;BME280;48553;50.766;2.900;2022-10-22T16:52:49;100615.16;;;19.37;66.54
60852;BME280;48553;50.766;2.900;2022-10-22T16:55:49;100613.16;;;19.38;66.77
60852;BME280;48553;50.766;2.900;2022-10-22T16:58:52;100626.28;;;19.34;66.83
60852;BME280;48553;50.766;2.900;2022-10-22T17:01:52;100627.47;;;19.29;66.68
60852;BME280;48553;50.766;2.900;2022-10-22T17:04:54;100627.09;;;19.24;66.83
60852;BME280;48553;50.766;2.900;2022-10-22T17:07:54;100621.91;;;19.18;66.86
60852;BME280;48553;50.766;2.900;2022-10-22T17:10:54;100610.03;;;19.14;66.93
60852;BME280;48553;50.766;2.900;2022-10-22T17:13:55;100625.50;;;19.12;67.04
60852;BME280;48553;50.766;2.900;2022-10-22T17:16:56;100627.09;;;19.06;67.06
60852;BME280;48553;50.766;2.900;2022-10-22T17:19:56;100627.47;;;19.01;67.32
60852;BME280;48553;50.766;2.900;2022-10-22T17:22:57;100630.66;;;18.99;67.19
60852;BME280;48553;50.766;2.900;2022-10-22T17:26:00;100634.63;;;18.98;67.41
60852;BME280;48553;50.766;2.900;2022-10-22T17:29:01;100629.06;;;18.94;67.25
60852;BME280;48553;50.766;2.900;2022-10-22T17:32:01;100638.19;;;18.91;67.41
60852;BME280;48553;50.766;2.900;2022-10-22T17:35:02;100636.59;;;18.87;67.63
60852;BME280;48553;50.766;2.900;2022-10-22T17:38:02;100642.16;;;18.87;67.54